Fremont, Indiana
Current Conditions -  °F | °C
As of 12:55 PM on Friday 19 Dec 2014 (Local Time) from KANQ Reporting Station
Overcast Overcast  
Wind Chill: 28°   Ceiling: 1600
Heat Index: 28°   Visibility: 10mi
Dew Point: 16°   Wind: 0mph
Humidity: 59%   Direction: NA
Pressure: 30.25"   Gusts: NA
Location:  41.73°N, 84.93°W
Report Text: KANQ 191755Z AUTO 00000KT 10SM OVC016 M02/M09 A3025 RMK
Loading
Personal Weather Stations






























Interactive Weather Map New forecast layout! Learn more

10-Day Weather Forecast

Advertisements
Track Severe Weather on mobile